Time;durP1;ratioP1;P1;durP2;ratioP2;P2;SDS_P1;SDS_P2;PMS_P1;PMS_P2;Temp;Humidity;BMP_temperature;BMP_pressure;BME280_temperature;BME280_humidity;BME280_pressure;Samples;Min_cycle;Max_cycle;Signal;HPM_P1;HPM_P2
2023/01/05 00:02:11;;;;;;;17.60;4.10;;;17.00;96.10;;;;;;5073163;28;20404;-69
2023/01/05 00:04:36;;;;;;;13.18;3.55;;;17.00;96.10;;;;;;5073504;28;20020;-70
2023/01/05 00:07:02;;;;;;;12.65;4.45;;;17.00;96.00;;;;;;5073423;28;20477;-70
2023/01/05 00:09:28;;;;;;;16.05;4.57;;;17.00;96.10;;;;;;5072877;28;20028;-70
2023/01/05 00:23:01;;;;;;;15.52;4.32;;;17.00;95.80;;;;;;5073377;28;20550;-70
2023/01/05 00:25:32;;;;;;;12.95;4.18;;;17.00;96.10;;;;;;5071535;28;20111;-70
2023/01/05 00:27:58;;;;;;;16.08;4.22;;;17.00;96.00;;;;;;5073209;28;20092;-70
2023/01/05 00:30:34;;;;;;;16.02;4.30;;;17.00;95.90;;;;;;5072728;28;20475;-70
2023/01/05 00:32:59;;;;;;;15.88;3.80;;;17.00;95.80;;;;;;5072790;28;20491;-70
2023/01/05 00:35:25;;;;;;;13.85;3.85;;;17.00;95.80;;;;;;5072791;28;20028;-70
2023/01/05 00:37:50;;;;;;;14.27;3.83;;;16.90;95.80;;;;;;5072747;28;20492;-70
2023/01/05 00:40:19;;;;;;;16.65;3.88;;;17.00;95.80;;;;;;5072732;28;20358;-70
2023/01/05 00:42:46;;;;;;;15.35;4.55;;;17.00;95.80;;;;;;5073196;28;20021;-70
2023/01/05 00:45:13;;;;;;;16.17;4.35;;;16.90;95.80;;;;;;5072803;28;20451;-70
2023/01/05 00:47:39;;;;;;;14.77;4.47;;;16.80;95.80;;;;;;5072970;28;20035;-70
2023/01/05 00:50:05;;;;;;;14.52;4.15;;;16.80;95.70;;;;;;5072818;28;20091;-70
2023/01/05 00:52:31;;;;;;;14.07;3.83;;;16.90;95.80;;;;;;5071396;28;20453;-70
2023/01/05 00:54:57;;;;;;;10.90;3.35;;;16.90;95.70;;;;;;5072642;28;20028;-70
2023/01/05 00:57:22;;;;;;;13.63;3.78;;;16.80;95.70;;;;;;5072314;28;20060;-70
2023/01/05 00:59:48;;;;;;;16.38;4.15;;;16.80;95.70;;;;;;5073090;28;20420;-70
2023/01/05 01:02:14;;;;;;;16.42;4.35;;;16.90;95.80;;;;;;5072439;28;20036;-70
2023/01/05 01:04:39;;;;;;;11.60;3.55;;;16.80;95.80;;;;;;5072583;28;20035;-70
2023/01/05 01:07:05;;;;;;;14.25;3.88;;;16.90;95.80;;;;;;5072446;28;20021;-70
2023/01/05 01:09:31;;;;;;;14.27;3.85;;;16.80;95.70;;;;;;5070916;28;20017;-70
2023/01/05 01:11:57;;;;;;;12.80;3.40;;;16.90;95.70;;;;;;5072690;28;20032;-70
2023/01/05 01:14:22;;;;;;;13.60;3.67;;;16.90;95.70;;;;;;5072393;28;20035;-71
2023/01/05 01:16:48;;;;;;;14.35;4.32;;;16.90;95.70;;;;;;5072246;28;20027;-70
2023/01/05 01:19:17;;;;;;;13.65;3.75;;;16.90;95.60;;;;;;5072390;28;20481;-70
2023/01/05 01:21:42;;;;;;;17.67;4.93;;;16.90;95.60;;;;;;5072519;28;20027;-70
2023/01/05 01:24:13;;;;;;;18.15;3.78;;;16.90;95.40;;;;;;5072147;28;20021;-70
2023/01/05 01:26:39;;;;;;;16.25;3.90;;;16.90;95.60;;;;;;5072172;28;20029;-70
2023/01/05 01:29:04;;;;;;;15.75;3.95;;;16.80;95.30;;;;;;5070996;28;20025;-71
2023/01/05 01:31:30;;;;;;;14.73;3.20;;;16.80;95.50;;;;;;5072221;28;20052;-70
2023/01/05 01:33:56;;;;;;;17.33;4.10;;;16.90;95.50;;;;;;5072268;28;20457;-70
2023/01/05 01:36:21;;;;;;;15.77;4.30;;;16.80;95.50;;;;;;5071809;28;20070;-71
2023/01/05 01:38:47;;;;;;;16.73;4.68;;;16.80;95.50;;;;;;5070853;28;20432;-71
2023/01/05 01:41:12;;;;;;;15.65;4.05;;;16.80;95.30;;;;;;5072215;28;20020;-70
2023/01/05 01:43:44;;;;;;;18.13;4.65;;;16.70;95.50;;;;;;5072303;28;20432;-70
2023/01/05 01:46:11;;;;;;;16.17;4.10;;;16.70;95.50;;;;;;5073676;28;20377;-71
2023/01/05 01:48:40;;;;;;;13.48;3.42;;;16.80;95.40;;;;;;5076136;28;20096;-71
2023/01/05 01:51:10;;;;;;;18.98;4.05;;;16.70;95.60;;;;;;5075863;28;20074;-70
2023/01/05 01:53:43;;;;;;;12.77;3.22;;;16.70;95.50;;;;;;5076398;28;20020;-70
2023/01/05 01:56:13;;;;;;;12.70;3.67;;;16.70;95.50;;;;;;5076027;28;20036;-70
2023/01/05 01:58:39;;;;;;;14.60;3.95;;;16.70;95.50;;;;;;5075667;28;20032;-71
2023/01/05 02:01:04;;;;;;;15.43;4.35;;;16.70;95.50;;;;;;5075630;28;20033;-70
2023/01/05 02:03:31;;;;;;;14.48;3.85;;;16.70;95.50;;;;;;5075571;28;20035;-71
2023/01/05 02:05:57;;;;;;;13.60;3.47;;;16.60;95.20;;;;;;5075592;28;20032;-70
2023/01/05 02:08:32;;;;;;;15.38;4.07;;;16.60;95.60;;;;;;5075611;28;20094;-70
2023/01/05 02:11:28;;;;;;;15.75;3.60;;;16.50;95.50;;;;;;5075545;28;20031;-70
2023/01/05 02:14:17;;;;;;;16.20;4.32;;;16.60;95.70;;;;;;5075710;28;20087;-69
2023/01/05 02:17:21;;;;;;;14.93;3.92;;;16.60;95.50;;;;;;5075428;28;20063;-70
2023/01/05 02:20:07;;;;;;;11.38;3.45;;;16.70;95.50;;;;;;5056674;28;20080;-70
2023/01/05 02:22:54;;;;;;;13.55;3.15;;;16.60;95.40;;;;;;5064620;28;20032;-71
2023/01/05 02:25:48;;;;;;;12.80;3.53;;;16.50;95.30;;;;;;5075405;28;20028;-71
2023/01/05 02:28:38;;;;;;;16.92;3.60;;;16.60;95.60;;;;;;5075396;28;20185;-70
2023/01/05 02:31:12;;;;;;;14.98;3.75;;;16.50;95.50;;;;;;5074947;28;20089;-71
2023/01/05 02:34:20;;;;;;;16.67;3.95;;;16.60;95.60;;;;;;5075411;28;20174;-70
2023/01/05 02:37:05;;;;;;;12.27;3.13;;;16.50;95.50;;;;;;5045449;28;20036;-71
2023/01/05 02:39:47;;;;;;;17.73;4.25;;;16.50;95.50;;;;;;5074773;28;20024;-71
2023/01/05 02:42:18;;;;;;;18.45;3.97;;;16.60;95.50;;;;;;5074051;28;20024;-71
2023/01/05 02:44:44;;;;;;;12.10;3.42;;;16.50;95.60;;;;;;5074965;28;20032;-71
2023/01/05 02:47:28;;;;;;;15.60;4.18;;;16.50;95.60;;;;;;5075198;28;20020;-70
2023/01/05 02:49:59;;;;;;;11.40;3.30;;;16.50;95.30;;;;;;5073264;28;20550;-70
2023/01/05 02:52:26;;;;;;;13.63;3.92;;;16.50;95.50;;;;;;5075081;28;20021;-71
2023/01/05 02:55:07;;;;;;;12.25;3.65;;;16.40;95.50;;;;;;5073481;28;20016;-71
2023/01/05 02:57:49;;;;;;;15.07;3.72;;;16.50;95.60;;;;;;5074651;28;20032;-71
2023/01/05 03:00:20;;;;;;;16.63;3.72;;;16.50;95.50;;;;;;5074476;28;20039;-71
2023/01/05 03:02:48;;;;;;;11.57;3.28;;;16.50;95.50;;;;;;5074613;28;20115;-71
2023/01/05 03:05:40;;;;;;;15.57;3.90;;;16.50;95.60;;;;;;5073038;28;20069;-71
2023/01/05 03:08:09;;;;;;;15.25;3.50;;;16.50;95.60;;;;;;5074331;28;20797;-70
2023/01/05 03:13:41;;;;;;;13.35;3.35;;;16.50;95.50;;;;;;5074777;28;20075;-71
2023/01/05 03:16:14;;;;;;;12.02;3.33;;;16.50;95.40;;;;;;5074554;28;20056;-70
2023/01/05 03:21:26;;;;;;;16.90;3.95;;;16.40;95.30;;;;;;5065064;28;20051;-71
2023/01/05 03:35:34;;;;;;;16.25;3.47;;;16.40;95.50;;;;;;5051834;28;20060;-71
2023/01/05 03:38:26;;;;;;;13.88;4.15;;;16.40;95.50;;;;;;5052034;28;20140;-70
2023/01/05 03:40:55;;;;;;;11.68;3.30;;;16.50;95.60;;;;;;5051792;28;20017;-71
2023/01/05 03:43:21;;;;;;;18.73;4.00;;;16.50;95.40;;;;;;5053462;28;20539;-71
2023/01/05 03:45:55;;;;;;;15.27;4.50;;;16.50;95.50;;;;;;5053675;28;20021;-71
2023/01/05 03:48:22;;;;;;;17.02;4.20;;;16.40;95.40;;;;;;5053565;28;20493;-71
2023/01/05 03:50:48;;;;;;;18.70;3.97;;;16.30;95.60;;;;;;5053581;28;20485;-71
2023/01/05 03:53:13;;;;;;;20.80;4.07;;;16.40;95.50;;;;;;5053901;28;20025;-71
2023/01/05 03:55:39;;;;;;;15.98;4.22;;;16.40;95.60;;;;;;5053501;28;20029;-71
2023/01/05 03:58:05;;;;;;;15.27;4.32;;;16.40;95.50;;;;;;5053601;28;20115;-71
2023/01/05 04:00:31;;;;;;;11.68;3.15;;;16.40;95.50;;;;;;5053670;28;20111;-71
2023/01/05 04:02:57;;;;;;;15.00;3.78;;;16.40;95.50;;;;;;5053087;28;20029;-71
2023/01/05 04:05:22;;;;;;;13.27;3.55;;;16.40;95.50;;;;;;5053697;28;20029;-70
2023/01/05 04:07:48;;;;;;;15.93;4.32;;;16.50;95.50;;;;;;5053400;28;20021;-70
2023/01/05 04:10:13;;;;;;;14.38;3.80;;;16.40;95.50;;;;;;5052737;28;20522;-71
2023/01/05 04:12:39;;;;;;;12.73;3.53;;;16.30;95.50;;;;;;5053167;28;20028;-71
2023/01/05 04:15:05;;;;;;;10.77;3.42;;;16.30;95.40;;;;;;5053444;28;20528;-71
2023/01/05 04:17:31;;;;;;;17.02;4.20;;;16.30;95.60;;;;;;5052719;28;20043;-71
2023/01/05 04:19:57;;;;;;;13.73;3.13;;;16.40;95.50;;;;;;5053118;28;20017;-71
2023/01/05 04:22:22;;;;;;;14.82;3.40;;;16.40;95.50;;;;;;5053225;28;20025;-71
2023/01/05 04:24:48;;;;;;;13.45;3.47;;;16.20;95.70;;;;;;5051961;28;20051;-71
2023/01/05 04:27:13;;;;;;;14.77;4.00;;;16.30;95.60;;;;;;5053092;28;20017;-71
2023/01/05 04:29:39;;;;;;;15.85;4.47;;;16.40;95.60;;;;;;5052834;28;20025;-71
2023/01/05 04:32:05;;;;;;;15.07;3.78;;;16.40;95.50;;;;;;5052568;28;20041;-70
2023/01/05 04:34:30;;;;;;;17.10;4.55;;;16.40;95.50;;;;;;5053130;28;20075;-71
2023/01/05 04:36:56;;;;;;;15.65;3.58;;;16.40;95.40;;;;;;5052860;28;20029;-71
2023/01/05 04:39:22;;;;;;;18.70;4.57;;;16.40;95.40;;;;;;5052949;28;20083;-71
2023/01/05 04:41:47;;;;;;;14.98;4.03;;;16.40;95.60;;;;;;5052809;28;20021;-71
2023/01/05 04:44:13;;;;;;;16.30;3.88;;;16.40;95.40;;;;;;5052924;28;20474;-70
2023/01/05 04:46:39;;;;;;;20.48;4.78;;;16.40;95.40;;;;;;5052380;28;20449;-71
2023/01/05 04:49:05;;;;;;;13.50;3.75;;;16.40;95.30;;;;;;5052652;28;20040;-71
2023/01/05 04:51:30;;;;;;;15.13;4.20;;;16.30;95.40;;;;;;5052769;28;20070;-71
2023/01/05 04:53:56;;;;;;;20.70;4.75;;;16.30;95.40;;;;;;5052765;28;20312;-71
2023/01/05 04:56:22;;;;;;;11.70;3.55;;;16.30;95.40;;;;;;5052731;28;20478;-71
2023/01/05 04:58:47;;;;;;;14.13;4.00;;;16.40;95.40;;;;;;5052481;28;20492;-71
2023/01/05 05:01:13;;;;;;;18.55;4.60;;;16.40;95.50;;;;;;5052563;28;20079;-71
2023/01/05 05:03:38;;;;;;;15.65;4.32;;;16.30;95.40;;;;;;5052636;28;20086;-71
2023/01/05 05:06:04;;;;;;;15.20;3.80;;;16.20;95.40;;;;;;5052555;28;20478;-71
2023/01/05 05:08:30;;;;;;;14.90;3.67;;;16.30;95.50;;;;;;5052419;28;20098;-71
2023/01/05 05:10:55;;;;;;;13.48;3.60;;;16.30;95.50;;;;;;5051215;28;20017;-71
2023/01/05 05:13:21;;;;;;;17.35;3.97;;;16.20;95.40;;;;;;5052231;28;20025;-71
2023/01/05 05:15:46;;;;;;;13.73;3.90;;;16.20;95.50;;;;;;5052260;28;20482;-70
2023/01/05 05:18:12;;;;;;;17.60;4.10;;;16.10;95.50;;;;;;5052273;28;20463;-71
2023/01/05 05:20:41;;;;;;;16.08;4.15;;;16.20;95.60;;;;;;5052813;28;20017;-71
2023/01/05 05:23:06;;;;;;;16.55;4.18;;;16.20;95.60;;;;;;5056293;28;20025;-70
2023/01/05 05:25:32;;;;;;;15.02;4.15;;;16.20;95.40;;;;;;5056660;28;20078;-71
2023/01/05 05:27:58;;;;;;;14.82;3.58;;;16.30;95.50;;;;;;5056414;28;20386;-71
2023/01/05 05:30:23;;;;;;;13.50;3.50;;;16.20;95.50;;;;;;5056049;28;20394;-71
2023/01/05 05:32:49;;;;;;;13.73;3.80;;;16.30;95.40;;;;;;5056230;28;20032;-71
2023/01/05 05:35:14;;;;;;;17.85;5.57;;;16.30;95.40;;;;;;5056490;28;20463;-71
2023/01/05 05:37:40;;;;;;;16.65;4.85;;;16.30;95.30;;;;;;5056240;28;20036;-71
2023/01/05 05:40:06;;;;;;;15.30;3.95;;;16.30;95.40;;;;;;5056175;28;20028;-71
2023/01/05 05:42:31;;;;;;;16.38;4.43;;;16.20;95.30;;;;;;5056222;28;20470;-71
2023/01/05 05:44:57;;;;;;;17.25;4.72;;;16.10;95.50;;;;;;5055675;28;20078;-71
2023/01/05 05:47:22;;;;;;;16.02;4.32;;;16.10;95.50;;;;;;5056280;28;20025;-71
2023/01/05 05:49:48;;;;;;;16.48;4.50;;;16.00;95.60;;;;;;5055862;28;20029;-70
2023/01/05 05:52:14;;;;;;;15.70;4.25;;;16.00;95.50;;;;;;5056345;28;20025;-70
2023/01/05 05:54:39;;;;;;;12.80;4.15;;;16.20;95.40;;;;;;5055765;28;20549;-70
2023/01/05 05:57:05;;;;;;;15.57;3.83;;;16.20;95.20;;;;;;5055928;28;20037;-70
2023/01/05 05:59:30;;;;;;;15.73;4.38;;;16.30;95.20;;;;;;5055504;28;20029;-70
2023/01/05 06:01:56;;;;;;;17.42;4.10;;;16.30;95.10;;;;;;5062717;28;20043;-71
2023/01/05 06:04:21;;;;;;;16.85;4.28;;;16.30;95.00;;;;;;5075759;28;20044;-70
2023/01/05 06:06:47;;;;;;;14.98;3.75;;;16.20;94.90;;;;;;5073762;28;20473;-70
2023/01/05 06:09:12;;;;;;;20.05;4.78;;;16.20;95.10;;;;;;5075278;28;20031;-70
2023/01/05 06:11:38;;;;;;;18.77;4.50;;;16.30;95.10;;;;;;5074499;28;20027;-70
2023/01/05 06:14:05;;;;;;;18.40;4.55;;;16.30;95.00;;;;;;5075268;28;20017;-70
2023/01/05 06:16:30;;;;;;;18.08;3.90;;;16.20;95.00;;;;;;5075654;28;20048;-70
2023/01/05 06:18:56;;;;;;;14.63;4.15;;;16.30;95.10;;;;;;5075398;28;20397;-70
2023/01/05 06:21:22;;;;;;;14.90;3.58;;;16.20;95.10;;;;;;5075398;28;20487;-70
2023/01/05 06:23:48;;;;;;;13.00;3.30;;;16.30;95.10;;;;;;5075247;28;20029;-70
2023/01/05 06:26:13;;;;;;;18.98;4.75;;;16.30;95.10;;;;;;5075467;28;20027;-70
2023/01/05 06:28:39;;;;;;;17.85;5.22;;;16.30;94.90;;;;;;5075136;28;20063;-71
2023/01/05 06:31:05;;;;;;;17.50;4.80;;;16.30;95.10;;;;;;5074995;28;20071;-70
2023/01/05 06:33:30;;;;;;;14.30;3.95;;;16.20;95.10;;;;;;5074921;28;20079;-70
2023/01/05 06:35:57;;;;;;;17.00;4.22;;;16.20;95.10;;;;;;5073866;28;20024;-70
2023/01/05 06:38:23;;;;;;;12.57;3.65;;;16.20;95.10;;;;;;5075169;28;20039;-70
2023/01/05 06:40:49;;;;;;;18.83;4.28;;;16.20;95.30;;;;;;5074912;28;20024;-71
2023/01/05 06:43:14;;;;;;;18.25;4.28;;;16.20;95.20;;;;;;5075102;28;20032;-70
2023/01/05 06:45:40;;;;;;;16.13;3.85;;;16.20;95.20;;;;;;5074704;28;20028;-70
2023/01/05 06:48:05;;;;;;;15.23;3.65;;;16.20;95.20;;;;;;5075052;28;20044;-70
2023/01/05 06:50:31;;;;;;;17.17;4.28;;;16.20;95.20;;;;;;5074893;28;20024;-70
2023/01/05 06:52:58;;;;;;;19.75;4.85;;;16.20;95.00;;;;;;5074978;28;20039;-70
2023/01/05 06:55:23;;;;;;;16.45;4.10;;;16.10;95.00;;;;;;5071187;28;20028;-70
2023/01/05 06:57:49;;;;;;;13.90;3.60;;;16.20;95.20;;;;;;5074822;28;20039;-70
2023/01/05 07:00:15;;;;;;;15.35;4.22;;;16.20;95.20;;;;;;5074491;28;20132;-70
2023/01/05 07:02:41;;;;;;;14.18;4.32;;;16.20;95.10;;;;;;5074663;28;20067;-70
2023/01/05 07:05:07;;;;;;;16.05;4.18;;;16.20;95.10;;;;;;5074328;28;20147;-70
2023/01/05 07:07:33;;;;;;;17.67;5.03;;;16.20;95.00;;;;;;5073350;28;20049;-69
2023/01/05 07:09:59;;;;;;;13.48;4.00;;;16.20;95.00;;;;;;5074183;28;20173;-69
2023/01/05 07:12:24;;;;;;;16.88;4.68;;;16.10;95.20;;;;;;5068848;28;20024;-70
2023/01/05 07:14:50;;;;;;;16.65;4.40;;;16.10;95.20;;;;;;5073654;28;20389;-70
2023/01/05 07:17:15;;;;;;;16.88;4.38;;;16.10;95.10;;;;;;5072925;28;20520;-70
2023/01/05 07:19:41;;;;;;;14.35;3.92;;;16.10;95.20;;;;;;5074107;28;20032;-70
2023/01/05 07:22:07;;;;;;;18.27;4.78;;;16.10;95.20;;;;;;5073339;28;20123;-70
2023/01/05 07:24:32;;;;;;;17.20;5.22;;;16.10;95.30;;;;;;5073632;28;20060;-70
2023/01/05 07:26:58;;;;;;;20.00;5.03;;;16.00;95.20;;;;;;5065452;28;20497;-70
2023/01/05 07:29:24;;;;;;;21.05;4.82;;;16.10;95.20;;;;;;5066983;28;20021;-70
2023/01/05 07:31:52;;;;;;;18.65;4.40;;;16.00;95.10;;;;;;5066247;28;20044;-70
2023/01/05 07:34:19;;;;;;;19.20;4.50;;;16.00;95.10;;;;;;5064349;28;20031;-70
2023/01/05 07:36:44;;;;;;;16.35;3.97;;;16.00;95.20;;;;;;5071091;28;20042;-71
2023/01/05 07:39:10;;;;;;;17.23;4.63;;;16.00;95.20;;;;;;5073535;28;20033;-70
2023/01/05 07:41:36;;;;;;;16.30;4.28;;;16.00;95.30;;;;;;5073881;28;20017;-70
2023/01/05 07:44:01;;;;;;;20.05;5.30;;;15.90;95.40;;;;;;5072803;28;20473;-71
2023/01/05 07:46:27;;;;;;;14.35;4.75;;;15.80;95.60;;;;;;5068842;28;20028;-70
2023/01/05 07:48:52;;;;;;;20.05;4.57;;;15.80;95.40;;;;;;5071470;28;20028;-71
2023/01/05 07:51:18;;;;;;;15.60;4.07;;;15.80;95.70;;;;;;5072836;28;20082;-71
2023/01/05 07:53:43;;;;;;;17.27;4.45;;;15.90;95.70;;;;;;5065207;28;20027;-72
2023/01/05 07:56:11;;;;;;;20.20;4.10;;;16.00;95.70;;;;;;5068963;28;20424;-71
2023/01/05 07:58:36;;;;;;;18.02;4.30;;;16.10;95.50;;;;;;5072057;28;20090;-71
2023/01/05 08:01:04;;;;;;;21.55;4.75;;;16.10;95.50;;;;;;5068885;28;20024;-72
2023/01/05 08:03:29;;;;;;;24.45;5.05;;;16.10;95.20;;;;;;5066325;28;20036;-71
2023/01/05 08:05:55;;;;;;;16.10;4.50;;;16.00;95.20;;;;;;5069662;28;20035;-73
2023/01/05 08:08:20;;;;;;;23.48;5.75;;;16.10;95.30;;;;;;5070072;28;20065;-72
2023/01/05 08:10:46;;;;;;;28.73;6.43;;;16.00;95.10;;;;;;5072573;28;20077;-71
2023/01/05 08:15:59;;;;;;;24.58;6.03;;;15.90;95.30;;;;;;5066638;28;20435;-72
2023/01/05 08:18:24;;;;;;;27.80;6.57;;;15.90;95.30;;;;;;5069722;28;20032;-72
2023/01/05 08:20:52;;;;;;;22.40;5.20;;;15.90;95.30;;;;;;5073098;28;20484;-73
2023/01/05 08:23:18;;;;;;;22.70;5.75;;;15.70;95.20;;;;;;5071873;28;20032;-72
2023/01/05 08:25:43;;;;;;;26.13;6.15;;;15.80;95.30;;;;;;5067262;28;20025;-73
2023/01/05 08:28:09;;;;;;;33.05;6.85;;;15.70;95.40;;;;;;5072840;28;20477;-73
2023/01/05 08:30:34;;;;;;;27.17;6.60;;;15.70;95.50;;;;;;5070450;28;20496;-73
2023/01/05 08:33:00;;;;;;;31.13;6.68;;;15.80;95.50;;;;;;5071085;28;20492;-72
2023/01/05 08:35:25;;;;;;;39.50;8.45;;;15.70;95.80;;;;;;5069827;28;20024;-72
2023/01/05 08:37:51;;;;;;;32.72;7.63;;;15.80;96.50;;;;;;5067864;28;20037;-72
2023/01/05 08:40:16;;;;;;;32.95;8.25;;;15.90;96.80;;;;;;5070272;28;20670;-71
2023/01/05 08:42:42;;;;;;;30.92;7.65;;;15.90;96.60;;;;;;5071697;28;20033;-72
2023/01/05 08:45:09;;;;;;;27.05;7.28;;;15.90;96.70;;;;;;5068307;28;20021;-72
2023/01/05 08:47:34;;;;;;;37.03;8.20;;;15.80;96.70;;;;;;5070589;28;20025;-73
2023/01/05 08:50:00;;;;;;;30.20;7.18;;;15.80;96.70;;;;;;5070455;28;20039;-73
2023/01/05 08:52:25;;;;;;;34.35;7.80;;;15.90;96.50;;;;;;5068138;28;20104;-72
2023/01/05 08:54:51;;;;;;;36.42;7.63;;;15.80;96.50;;;;;;5069140;28;20424;-73
2023/01/05 08:57:16;;;;;;;34.08;7.70;;;15.90;96.40;;;;;;5072344;28;20029;-73
2023/01/05 08:59:42;;;;;;;31.05;7.22;;;15.90;96.50;;;;;;5072437;28;20090;-72
2023/01/05 09:02:10;;;;;;;27.75;6.57;;;16.00;96.30;;;;;;5072518;28;20050;-72
2023/01/05 09:04:36;;;;;;;29.80;7.15;;;15.90;96.30;;;;;;5071756;28;20063;-71
2023/01/05 09:07:02;;;;;;;26.27;7.03;;;15.80;96.30;;;;;;5070969;28;20115;-72
2023/01/05 09:09:28;;;;;;;30.20;6.90;;;15.90;96.30;;;;;;5072503;28;20033;-73
2023/01/05 09:11:53;;;;;;;26.35;6.05;;;15.80;96.10;;;;;;5072607;28;20024;-73
2023/01/05 09:14:19;;;;;;;36.92;6.88;;;15.70;96.10;;;;;;5072441;28;20028;-73
2023/01/05 09:16:44;;;;;;;29.02;7.80;;;15.60;96.10;;;;;;5072592;28;20062;-72
2023/01/05 09:19:10;;;;;;;26.73;5.88;;;15.60;95.90;;;;;;5072391;28;20090;-73
2023/01/05 09:21:38;;;;;;;28.77;6.95;;;15.70;95.90;;;;;;5071842;28;20039;-72
2023/01/05 09:24:06;;;;;;;30.45;7.18;;;15.60;96.00;;;;;;5072420;28;20114;-73
2023/01/05 09:26:31;;;;;;;26.60;6.38;;;15.70;96.00;;;;;;5072614;28;20480;-73
2023/01/05 09:28:57;;;;;;;24.92;6.43;;;15.70;96.00;;;;;;5072232;28;20502;-73
2023/01/05 09:31:22;;;;;;;28.05;6.15;;;15.80;96.00;;;;;;5072110;28;20044;-72
2023/01/05 09:33:48;;;;;;;27.55;6.85;;;15.80;95.90;;;;;;5072254;28;20074;-73
2023/01/05 09:36:16;;;;;;;30.33;7.63;;;15.70;95.90;;;;;;5071981;28;20504;-72
2023/01/05 09:38:41;;;;;;;27.13;6.35;;;15.70;95.90;;;;;;5072259;28;20051;-73
2023/01/05 09:41:31;;;;;;;26.30;6.75;;;15.70;95.80;;;;;;5072190;28;20025;-71
2023/01/05 09:44:11;;;;;;;29.00;7.20;;;15.80;95.80;;;;;;5070959;28;20040;-72
2023/01/05 09:46:41;;;;;;;30.13;6.70;;;15.80;95.70;;;;;;5072154;28;20132;-73
2023/01/05 09:49:12;;;;;;;28.30;6.63;;;15.70;95.70;;;;;;5072061;28;20397;-71
2023/01/05 09:51:38;;;;;;;26.88;7.30;;;15.70;95.80;;;;;;5071743;28;20025;-73
2023/01/05 09:54:04;;;;;;;22.88;5.65;;;15.80;95.70;;;;;;5072281;28;20036;-73
2023/01/05 09:56:33;;;;;;;24.67;6.18;;;15.80;95.60;;;;;;5072154;28;20107;-72
2023/01/05 09:59:05;;;;;;;25.17;5.35;;;15.80;95.80;;;;;;5071938;28;20060;-73
2023/01/05 10:01:35;;;;;;;27.40;5.87;;;15.70;95.50;;;;;;5072280;28;20051;-71
2023/01/05 10:04:05;;;;;;;28.38;5.80;;;15.70;95.60;;;;;;5071623;28;20064;-73
2023/01/05 10:06:38;;;;;;;30.00;6.47;;;15.70;95.60;;;;;;5072242;28;20025;-73
2023/01/05 10:09:06;;;;;;;22.85;5.50;;;15.70;95.60;;;;;;5074431;28;20066;-72
2023/01/05 10:14:30;;;;;;;20.92;6.13;;;15.70;95.60;;;;;;5073621;28;20512;-73
2023/01/05 10:16:56;;;;;;;28.75;6.43;;;15.70;95.50;;;;;;5072996;28;20033;-73
2023/01/05 10:19:21;;;;;;;25.23;5.93;;;15.60;95.50;;;;;;5075173;28;20038;-73
2023/01/05 10:22:17;;;;;;;28.02;6.13;;;15.70;95.50;;;;;;5072664;28;20058;-69
2023/01/05 10:25:02;;;;;;;26.48;5.07;;;15.70;95.60;;;;;;5071612;28;20059;-72
2023/01/05 10:27:46;;;;;;;27.45;6.05;;;15.80;95.60;;;;;;5072602;28;20032;-71
2023/01/05 10:30:38;;;;;;;22.42;5.05;;;15.70;95.60;;;;;;5074943;28;20086;-72
2023/01/05 10:33:09;;;;;;;24.55;6.03;;;15.70;95.70;;;;;;5070028;28;20033;-70
2023/01/05 10:35:59;;;;;;;24.08;6.50;;;15.60;95.80;;;;;;5066198;28;20033;-72
2023/01/05 10:38:37;;;;;;;22.83;5.88;;;15.60;95.80;;;;;;5053749;28;20037;-72
2023/01/05 10:41:06;;;;;;;22.15;5.53;;;15.60;95.90;;;;;;5054965;28;20025;-73
2023/01/05 10:43:54;;;;;;;25.25;5.35;;;15.60;95.90;;;;;;5053769;28;20056;-72
2023/01/05 10:46:20;;;;;;;25.98;5.93;;;15.50;96.00;;;;;;5055025;28;20478;-73
2023/01/05 10:48:46;;;;;;;25.55;5.60;;;15.60;96.00;;;;;;5054704;28;20022;-73
2023/01/05 10:51:12;;;;;;;22.52;5.30;;;15.50;96.10;;;;;;5054898;28;20090;-72
2023/01/05 10:53:41;;;;;;;21.08;5.57;;;15.50;96.10;;;;;;5054996;28;20365;-72
2023/01/05 10:56:28;;;;;;;25.77;5.43;;;15.60;96.10;;;;;;5054980;28;20027;-72
2023/01/05 10:59:11;;;;;;;19.17;5.32;;;15.60;96.10;;;;;;5054901;28;20099;-73
2023/01/05 11:01:41;;;;;;;21.05;5.22;;;15.60;96.10;;;;;;5054599;28;20482;-72
2023/01/05 11:04:31;;;;;;;24.25;6.00;;;15.60;96.00;;;;;;5054706;28;20052;-72
2023/01/05 11:07:05;;;;;;;19.52;5.05;;;15.60;96.10;;;;;;5054125;28;20033;-73
2023/01/05 11:09:31;;;;;;;20.90;5.35;;;15.60;96.10;;;;;;5054582;28;20017;-73
2023/01/05 11:11:59;;;;;;;22.92;5.45;;;15.60;96.10;;;;;;5069962;28;20140;-71
2023/01/05 11:14:28;;;;;;;23.23;4.97;;;15.60;96.40;;;;;;5065720;28;20021;-71
2023/01/05 11:17:01;;;;;;;25.05;5.22;;;15.60;96.30;;;;;;5073808;28;20031;-73
2023/01/05 11:19:31;;;;;;;21.52;5.18;;;15.60;96.30;;;;;;5074018;28;20037;-71
2023/01/05 11:21:57;;;;;;;21.17;5.15;;;15.60;96.30;;;;;;5074062;28;20499;-73
2023/01/05 11:24:22;;;;;;;24.27;5.03;;;15.70;96.20;;;;;;5074375;28;20026;-73
2023/01/05 11:26:57;;;;;;;22.58;5.32;;;15.60;96.20;;;;;;5074034;28;20024;-72
2023/01/05 11:29:24;;;;;;;25.98;5.20;;;15.60;96.30;;;;;;5074025;28;20025;-72
2023/01/05 11:31:55;;;;;;;23.98;5.45;;;15.70;96.00;;;;;;5073718;28;20044;-72
2023/01/05 11:34:44;;;;;;;22.73;5.53;;;15.80;95.80;;;;;;5074218;28;20028;-71
2023/01/05 11:37:22;;;;;;;19.25;4.90;;;15.80;95.80;;;;;;5073882;28;20024;-72
2023/01/05 11:39:50;;;;;;;23.67;5.22;;;15.90;95.80;;;;;;5072681;28;20043;-73
2023/01/05 11:42:32;;;;;;;18.20;4.93;;;16.00;95.70;;;;;;5072718;28;20016;-72
2023/01/05 11:45:20;;;;;;;21.05;5.38;;;15.90;95.70;;;;;;5074059;28;20037;-72
2023/01/05 11:47:55;;;;;;;25.60;5.07;;;15.90;95.70;;;;;;5073818;28;20021;-73
2023/01/05 11:50:26;;;;;;;17.63;4.82;;;16.00;95.60;;;;;;5074019;28;20119;-73
2023/01/05 11:53:01;;;;;;;18.98;4.47;;;16.00;95.60;;;;;;5073632;28;20028;-73
2023/01/05 11:55:29;;;;;;;19.70;4.35;;;16.00;95.60;;;;;;5073858;28;20134;-71
2023/01/05 11:58:16;;;;;;;16.75;4.40;;;16.00;95.60;;;;;;5073241;28;20029;-72
2023/01/05 12:00:47;;;;;;;18.80;4.53;;;16.00;95.60;;;;;;5071925;28;20166;-72
2023/01/05 12:03:42;;;;;;;21.50;5.10;;;16.00;95.40;;;;;;5073508;28;20046;-73
2023/01/05 12:06:17;;;;;;;21.80;4.57;;;16.00;95.50;;;;;;5073470;28;20039;-73
2023/01/05 12:09:04;;;;;;;15.43;3.72;;;16.00;95.50;;;;;;5073328;28;20063;-72
2023/01/05 12:11:41;;;;;;;16.75;4.25;;;16.00;94.90;;;;;;5073420;28;20029;-72
2023/01/05 12:14:37;;;;;;;19.98;4.40;;;16.10;94.60;;;;;;5073495;28;20025;-72
2023/01/05 12:17:13;;;;;;;15.70;4.53;;;16.20;94.50;;;;;;5073091;28;20028;-72
2023/01/05 12:19:50;;;;;;;18.83;4.50;;;16.20;94.30;;;;;;5073214;28;20031;-71
2023/01/05 12:22:33;;;;;;;19.35;5.10;;;16.20;94.30;;;;;;5073112;28;20025;-72
2023/01/05 12:25:19;;;;;;;24.33;5.53;;;16.30;94.20;;;;;;5072615;28;20055;-72
2023/01/05 12:28:13;;;;;;;19.63;4.72;;;16.30;94.10;;;;;;5071839;28;20044;-72
2023/01/05 12:31:02;;;;;;;20.35;4.55;;;16.40;94.40;;;;;;5069263;28;20062;-73
2023/01/05 12:33:49;;;;;;;12.93;4.32;;;16.40;94.20;;;;;;5072702;28;20028;-73
2023/01/05 12:36:36;;;;;;;17.15;4.28;;;16.40;94.50;;;;;;5072933;28;20025;-72
2023/01/05 12:39:04;;;;;;;14.50;4.40;;;16.50;94.20;;;;;;5052789;28;20033;-72
2023/01/05 12:42:03;;;;;;;19.23;4.90;;;16.50;94.20;;;;;;5051448;28;20024;-72
2023/01/05 12:45:03;;;;;;;15.25;4.35;;;16.50;94.30;;;;;;5055782;28;20112;-72
2023/01/05 12:48:03;;;;;;;19.25;3.97;;;16.50;94.40;;;;;;5048388;28;20130;-72
2023/01/05 12:50:35;;;;;;;20.55;5.35;;;16.50;94.50;;;;;;5072233;28;20419;-72
2023/01/05 12:53:13;;;;;;;22.02;4.85;;;16.60;94.40;;;;;;5073029;28;20025;-72
2023/01/05 12:55:44;;;;;;;16.75;4.45;;;16.60;94.50;;;;;;5071746;28;20060;-72
2023/01/05 12:58:19;;;;;;;19.07;4.93;;;16.60;94.50;;;;;;5070787;28;20036;-72
2023/01/05 13:00:47;;;;;;;13.20;3.92;;;16.60;94.60;;;;;;5062309;28;20056;-72
2023/01/05 13:03:34;;;;;;;13.18;4.15;;;16.70;94.60;;;;;;5071925;28;20435;-72
2023/01/05 13:06:10;;;;;;;15.43;4.55;;;16.70;94.70;;;;;;5071619;28;20032;-72
2023/01/05 13:08:56;;;;;;;22.15;4.88;;;16.70;94.60;;;;;;5071936;28;20021;-73
2023/01/05 13:11:55;;;;;;;16.35;4.38;;;16.70;94.60;;;;;;5072456;28;20103;-73
2023/01/05 13:14:26;;;;;;;17.27;4.10;;;16.80;94.60;;;;;;5070505;28;20082;-72
2023/01/05 13:16:57;;;;;;;21.65;4.85;;;16.80;94.50;;;;;;5072478;28;20465;-72
2023/01/05 13:19:40;;;;;;;16.20;5.07;;;16.80;94.50;;;;;;5070918;28;20055;-70
2023/01/05 13:22:17;;;;;;;16.05;4.47;;;16.80;94.70;;;;;;5072542;28;20021;-70
2023/01/05 13:25:11;;;;;;;15.70;4.50;;;16.80;94.60;;;;;;5072119;28;20085;-70
2023/01/05 13:27:37;;;;;;;18.80;5.07;;;16.80;94.60;;;;;;5072024;28;20024;-71